Benton, CA (93512)

12:22 AM PDT on March 29, 2017 (GMT -0700)
Zack Ranch | | Change Station
Active Advisory: High Wind Watch

Elev 4580 ft 37.66 °N, 118.40 °W | Updated 53 seconds ago

Clear
Clear
43.5 °F
Feels Like 37 °F
N
11.4
Wind Variable Wind from NW

Today
High -- | Low -- °F
--% Chance of Precip.
Yesterday
High -- | Low -- °F
Precip. -- in
Pressure 30.31 in
Visibility 10.0 miles
Clouds Clear
Windchill 37 °F
Dew Point 22 °F
Humidity 43%
Rainfall 0.00 in
Snow Depth Not available.
6:43 AM 7:14 PM
New Moon, 2% visible
METAR KMMH 290715Z AUTO 00000KT 10SM CLR 00/M06 A3031 RMK AO2 T10041056
Pressure 30.31 in
Visibility 10.0 miles
Clouds Clear
Windchill 37 °F
Dew Point 22 °F
Humidity 43%
Rainfall 0.00 in
Snow Depth Not available.
6:43 AM 7:14 PM
New Moon, 2% visible
METAR KMMH 290715Z AUTO 00000KT 10SM CLR 00/M06 A3031 RMK AO2 T10041056

Get Your Daily Forecast Email!

Thanks for signing up!

Be on the lookout for a verification email in your inbox.

You'll start receiving severe weather alerts in your inbox..

×

10-Day Weather Forecast

Almanac

Astronomy

Mar. 29, 2017 Rise Set
Actual Time
Civil Twilight
Nautical Twilight
Astronomical Twilight
Moon
Length of Visible Light
Length of Day
Tomorrow will be .
, % of the Moon is Illuminated

Today's Extremes

State Highs State Lows

Community

WunderPhotos

Upload Photos

1,962,540 photos uploaded!

WunderBlog® & News

Nearby

Air Quality

  Air Quality AQ Index Pollutant
Not available.

Snow Depth

Station Depth Elevation

Earthquake Activity

City Distance Mag. Time & Date
Minimum magnitude displayed is 2.5.

Earthquake Activity

City Distance Mag. Time & Date
Minimum magnitude displayed is 2.5.

Coastal Water Temperatures

Place Temperature

Stations

Nearby Weather Stations

Station Location Temp. Windchill Dew Point Humidity Wind Precip. Elev Updated Type
                   

Watches & Warnings

High Wind Watch
Issued: 3:38 PM PDT Mar. 28, 2017 – National Weather Service

... High wind watch in effect from Thursday morning through
Thursday evening...

The National Weather Service in Reno has issued a high wind
watch, which is in effect from Thursday morning through Thursday
evening.

* Timing: winds will increase Thursday morning with the strongest
winds expected with the passage of a strong cold front by early
afternoon.

* Winds: west 30 to 40 mph with gusts up to 60 mph shifting northwest
by early afternoon behind the front.

* Impacts: Crosswinds may result in travel impacts for high
profile vehicles and areas of wind shear for aviation. Choppy
waters can be expected on area lakes.

Precautionary/preparedness actions...

Now is the time to secure loose outdoor items such as patio
furniture, Holiday decorations, and trash cans before winds
increase which could blow these items away. The best thing to do
is prepare ahead of time by making sure you have extra food and
water on hand, flashlights with spare batteries and/or candles in
the event of a power outage.



Http://weather.Gov/Reno